Time;durP1;ratioP1;P1;durP2;ratioP2;P2;SDS_P1;SDS_P2;PMS_P1;PMS_P2;Temp;Humidity;BMP_temperature;BMP_pressure;BME280_temperature;BME280_humidity;BME280_pressure;Samples;Min_cycle;Max_cycle;Signal;HPM_P1;HPM_P2
2024/04/01 00:01:59;;;;;;;25.25;23.25;;;;;;;;;;5007548;28;20137;-54
2024/04/01 00:04:25;;;;;;;24.30;22.40;;;;;;;;;;5007591;28;20022;-57
2024/04/01 00:06:51;;;;;;;21.77;19.95;;;;;;;;;;5008025;28;20209;-55
2024/04/01 00:09:17;;;;;;;21.55;19.75;;;;;;;;;;5007436;28;20044;-55
2024/04/01 00:11:43;;;;;;;20.25;18.45;;;;;;;;;;5039342;28;20033;-56
2024/04/01 00:14:09;;;;;;;18.52;16.83;;;;;;;;;;5007203;28;20060;-56
2024/04/01 00:16:35;;;;;;;17.40;15.70;;;;;;;;;;5007131;28;20408;-56
2024/04/01 00:19:01;;;;;;;16.70;15.00;;;;;;;;;;5006754;28;20058;-57
2024/04/01 00:21:27;;;;;;;15.82;14.13;;;;;;;;;;5007007;28;20117;-56
2024/04/01 00:23:56;;;;;;;15.38;13.77;;;;;;;;;;5006732;28;20560;-57
2024/04/01 00:26:22;;;;;;;15.10;13.45;;;;;;;;;;5007163;28;20404;-55
2024/04/01 00:28:48;;;;;;;14.98;13.07;;;;;;;;;;5005553;28;20399;-53
2024/04/01 00:31:14;;;;;;;14.90;12.90;;;;;;;;;;5007084;28;20026;-53
2024/04/01 00:33:40;;;;;;;14.70;12.05;;;;;;;;;;5006473;28;20155;-54
2024/04/01 00:36:06;;;;;;;14.25;10.60;;;;;;;;;;5005440;28;20124;-57
2024/04/01 00:38:32;;;;;;;14.50;10.70;;;;;;;;;;5006961;28;20068;-53
2024/04/01 00:40:58;;;;;;;14.18;10.38;;;;;;;;;;5007065;28;20026;-55
2024/04/01 00:43:25;;;;;;;14.20;10.43;;;;;;;;;;5009331;28;20656;-56
2024/04/01 00:45:51;;;;;;;14.10;10.18;;;;;;;;;;5008748;28;20033;-57
2024/04/01 00:48:17;;;;;;;14.13;10.27;;;;;;;;;;5009805;28;20057;-56
2024/04/01 00:50:45;;;;;;;14.13;10.35;;;;;;;;;;5009157;28;20095;-56
2024/04/01 00:53:11;;;;;;;14.13;10.27;;;;;;;;;;5009765;28;20026;-57
2024/04/01 00:55:42;;;;;;;14.20;10.40;;;;;;;;;;5009690;28;20026;-57
2024/04/01 00:58:08;;;;;;;14.20;10.52;;;;;;;;;;5008197;28;20029;-57
2024/04/01 01:00:34;;;;;;;14.18;10.50;;;;;;;;;;5009772;28;20010;-59
2024/04/01 01:03:01;;;;;;;14.05;10.20;;;;;;;;;;5009666;28;20477;-58
2024/04/01 01:05:27;;;;;;;13.93;9.90;;;;;;;;;;5009755;28;20080;-58
2024/04/01 01:07:54;;;;;;;13.98;9.90;;;;;;;;;;5008369;28;20033;-51
2024/04/01 01:10:21;;;;;;;13.90;9.80;;;;;;;;;;5008398;28;20523;-54
2024/04/01 01:12:47;;;;;;;13.90;9.77;;;;;;;;;;5009363;28;20030;-59
2024/04/01 01:15:13;;;;;;;13.93;9.75;;;;;;;;;;5009555;28;20038;-59
2024/04/01 01:17:40;;;;;;;13.82;9.32;;;;;;;;;;5009274;28;20153;-58
2024/04/01 01:20:12;;;;;;;13.57;8.77;;;;;;;;;;5009100;28;20061;-52
2024/04/01 01:22:40;;;;;;;13.60;8.68;;;;;;;;;;5009386;28;20050;-58
2024/04/01 01:25:07;;;;;;;13.43;8.20;;;;;;;;;;5024548;28;20018;-55
2024/04/01 01:27:36;;;;;;;13.35;8.00;;;;;;;;;;5024688;28;20030;-58
2024/04/01 01:30:14;;;;;;;13.40;8.00;;;;;;;;;;5009206;28;20018;-58
2024/04/01 01:32:41;;;;;;;13.07;7.60;;;;;;;;;;5009320;28;20029;-55
2024/04/01 01:35:08;;;;;;;13.20;7.70;;;;;;;;;;5008489;28;20053;-59
2024/04/01 01:37:34;;;;;;;13.07;7.70;;;;;;;;;;5009404;28;20510;-59
2024/04/01 01:40:00;;;;;;;13.00;7.60;;;;;;;;;;5024189;28;20033;-55
2024/04/01 01:42:26;;;;;;;12.35;7.20;;;;;;;;;;5009016;28;20052;-60
2024/04/01 01:44:52;;;;;;;12.60;7.30;;;;;;;;;;5024251;28;20026;-55
2024/04/01 01:47:18;;;;;;;11.85;6.95;;;;;;;;;;5009323;28;20046;-60
2024/04/01 01:49:44;;;;;;;12.05;7.05;;;;;;;;;;5009232;28;20029;-60
2024/04/01 01:52:10;;;;;;;12.25;7.13;;;;;;;;;;5009122;28;20034;-60
2024/04/01 01:54:36;;;;;;;12.07;7.07;;;;;;;;;;5009242;28;20034;-61
2024/04/01 01:57:02;;;;;;;12.00;7.00;;;;;;;;;;5009365;28;20022;-59
2024/04/01 01:59:28;;;;;;;11.57;6.75;;;;;;;;;;5009164;28;20037;-59
2024/04/01 02:01:54;;;;;;;11.80;6.80;;;;;;;;;;5009357;28;20045;-54
2024/04/01 02:04:20;;;;;;;11.40;6.70;;;;;;;;;;5009111;28;20026;-57
2024/04/01 02:06:46;;;;;;;11.05;6.45;;;;;;;;;;5009270;28;20029;-57
2024/04/01 02:09:12;;;;;;;10.85;6.40;;;;;;;;;;5009159;28;20046;-57
2024/04/01 02:11:38;;;;;;;10.90;6.40;;;;;;;;;;5009072;28;20109;-54
2024/04/01 02:14:04;;;;;;;11.02;6.50;;;;;;;;;;5009207;28;20022;-58
2024/04/01 02:16:30;;;;;;;10.80;6.30;;;;;;;;;;5008836;28;20038;-60
2024/04/01 02:18:56;;;;;;;10.30;6.05;;;;;;;;;;5023986;28;20454;-59
2024/04/01 02:21:22;;;;;;;10.38;6.10;;;;;;;;;;5024681;28;20022;-58
2024/04/01 02:23:48;;;;;;;10.20;6.00;;;;;;;;;;5009114;28;20022;-59
2024/04/01 02:26:14;;;;;;;9.90;5.90;;;;;;;;;;5009228;28;20064;-54
2024/04/01 02:28:40;;;;;;;9.40;5.60;;;;;;;;;;5009119;28;20061;-56
2024/04/01 02:31:06;;;;;;;9.95;5.90;;;;;;;;;;5008731;28;20046;-54
2024/04/01 02:33:32;;;;;;;9.90;5.88;;;;;;;;;;5008709;28;20423;-55
2024/04/01 02:35:58;;;;;;;9.40;5.57;;;;;;;;;;5008822;28;20034;-57
2024/04/01 02:38:24;;;;;;;9.10;5.40;;;;;;;;;;5024126;28;20031;-56
2024/04/01 02:40:50;;;;;;;9.10;5.40;;;;;;;;;;5023957;28;20074;-59
2024/04/01 02:43:16;;;;;;;9.88;5.80;;;;;;;;;;5008598;28;20074;-58
2024/04/01 02:45:42;;;;;;;10.48;6.20;;;;;;;;;;5010227;28;20029;-58
2024/04/01 02:48:08;;;;;;;10.85;6.40;;;;;;;;;;5012377;28;20057;-55
2024/04/01 02:50:35;;;;;;;10.65;6.30;;;;;;;;;;5011943;28;20033;-56
2024/04/01 02:53:01;;;;;;;10.77;6.35;;;;;;;;;;5012122;28;20033;-56
2024/04/01 02:55:27;;;;;;;11.07;6.50;;;;;;;;;;5012087;28;20052;-58
2024/04/01 02:57:53;;;;;;;10.93;6.45;;;;;;;;;;5011975;28;20480;-56
2024/04/01 03:00:19;;;;;;;10.90;6.40;;;;;;;;;;5027318;28;20033;-58
2024/04/01 03:02:46;;;;;;;10.88;6.35;;;;;;;;;;5011819;28;20409;-57
2024/04/01 03:05:13;;;;;;;10.93;6.43;;;;;;;;;;5012131;28;20077;-55
2024/04/01 03:07:39;;;;;;;10.90;6.40;;;;;;;;;;5027210;28;20050;-58
2024/04/01 03:10:06;;;;;;;11.13;6.60;;;;;;;;;;5011901;28;20037;-51
2024/04/01 03:12:32;;;;;;;11.38;6.68;;;;;;;;;;5027131;28;20022;-56
2024/04/01 03:14:58;;;;;;;11.38;6.65;;;;;;;;;;5011626;28;20037;-57
2024/04/01 03:17:24;;;;;;;11.05;6.53;;;;;;;;;;5011932;28;20033;-56
2024/04/01 03:19:50;;;;;;;11.00;6.43;;;;;;;;;;5028095;28;20033;-55
2024/04/01 03:22:16;;;;;;;10.63;6.20;;;;;;;;;;5011959;28;20468;-57
2024/04/01 03:24:42;;;;;;;10.68;6.30;;;;;;;;;;5026947;28;20027;-58
2024/04/01 03:27:08;;;;;;;10.32;6.10;;;;;;;;;;5011735;28;20033;-57
2024/04/01 03:29:34;;;;;;;10.07;6.00;;;;;;;;;;5026572;28;20037;-56
2024/04/01 03:32:00;;;;;;;10.38;6.10;;;;;;;;;;5011315;28;20208;-57
2024/04/01 03:34:26;;;;;;;9.75;5.75;;;;;;;;;;5026493;28;20042;-57
2024/04/01 03:36:57;;;;;;;9.93;5.90;;;;;;;;;;5026601;28;20100;-54
2024/04/01 03:39:23;;;;;;;9.77;5.80;;;;;;;;;;5011339;28;20396;-57
2024/04/01 03:41:49;;;;;;;10.05;5.95;;;;;;;;;;5012174;28;20022;-55
2024/04/01 03:44:15;;;;;;;9.57;5.70;;;;;;;;;;5011052;28;20537;-59
2024/04/01 03:46:41;;;;;;;9.88;5.85;;;;;;;;;;5026128;28;20124;-59
2024/04/01 03:49:07;;;;;;;10.38;6.10;;;;;;;;;;5010966;28;20030;-58
2024/04/01 03:51:33;;;;;;;10.40;6.10;;;;;;;;;;5010788;28;20113;-56
2024/04/01 03:53:59;;;;;;;9.90;5.80;;;;;;;;;;5010712;28;20057;-59
2024/04/01 03:56:25;;;;;;;10.10;5.97;;;;;;;;;;5010377;28;20068;-59
2024/04/01 03:58:51;;;;;;;10.55;6.22;;;;;;;;;;5010582;28;20022;-58
2024/04/01 04:01:17;;;;;;;10.90;6.40;;;;;;;;;;5010826;28;20021;-54
2024/04/01 04:03:43;;;;;;;10.80;6.40;;;;;;;;;;5010670;28;20032;-55
2024/04/01 04:06:11;;;;;;;11.27;6.60;;;;;;;;;;5026001;28;20105;-57
2024/04/01 04:08:37;;;;;;;11.60;6.80;;;;;;;;;;5010661;28;20041;-54
2024/04/01 04:11:07;;;;;;;11.00;6.45;;;;;;;;;;5010703;28;20026;-58
2024/04/01 04:13:34;;;;;;;11.07;6.50;;;;;;;;;;5010608;28;20021;-58
2024/04/01 04:16:00;;;;;;;11.50;6.70;;;;;;;;;;5010763;28;20115;-57
2024/04/01 04:18:26;;;;;;;10.90;6.40;;;;;;;;;;5010251;28;20384;-60
2024/04/01 04:20:54;;;;;;;10.63;6.30;;;;;;;;;;5026190;28;20858;-55
2024/04/01 04:23:21;;;;;;;11.07;6.53;;;;;;;;;;5010584;28;20509;-57
2024/04/01 04:25:47;;;;;;;11.10;6.50;;;;;;;;;;5010567;28;20041;-58
2024/04/01 04:28:13;;;;;;;11.50;6.78;;;;;;;;;;5010381;28;20053;-59
2024/04/01 04:30:39;;;;;;;11.05;6.55;;;;;;;;;;5010436;28;20496;-58
2024/04/01 04:33:05;;;;;;;11.23;6.63;;;;;;;;;;5010112;28;20030;-59
2024/04/01 04:35:31;;;;;;;11.70;6.80;;;;;;;;;;5010332;28;20030;-59
2024/04/01 04:37:57;;;;;;;11.65;6.82;;;;;;;;;;5010370;28;20038;-56
2024/04/01 04:40:24;;;;;;;11.60;6.80;;;;;;;;;;5010615;28;20025;-56
2024/04/01 04:42:50;;;;;;;11.43;6.75;;;;;;;;;;5010158;28;20022;-57
2024/04/01 04:45:17;;;;;;;12.30;7.18;;;;;;;;;;5010237;28;20040;-58
2024/04/01 04:47:43;;;;;;;11.70;6.90;;;;;;;;;;5010368;28;20037;-57
2024/04/01 04:50:11;;;;;;;12.15;7.10;;;;;;;;;;5010165;28;20033;-60
2024/04/01 04:52:37;;;;;;;12.63;7.32;;;;;;;;;;5010281;28;20021;-56
2024/04/01 04:55:03;;;;;;;12.32;7.22;;;;;;;;;;5009901;28;20092;-54
2024/04/01 04:57:29;;;;;;;12.77;7.55;;;;;;;;;;5025727;28;20026;-59
2024/04/01 04:59:55;;;;;;;12.23;7.15;;;;;;;;;;5010642;28;20025;-57
2024/04/01 05:02:21;;;;;;;12.73;7.50;;;;;;;;;;5009920;28;20112;-57
2024/04/01 05:04:47;;;;;;;13.02;7.60;;;;;;;;;;5025489;28;20088;-57
2024/04/01 05:07:14;;;;;;;13.02;7.63;;;;;;;;;;5010517;28;20477;-59
2024/04/01 05:09:40;;;;;;;12.90;7.60;;;;;;;;;;5008905;28;20431;-56
2024/04/01 05:12:06;;;;;;;13.13;7.72;;;;;;;;;;5024789;28;20022;-58
2024/04/01 05:14:33;;;;;;;13.27;7.90;;;;;;;;;;5009488;28;20022;-59
2024/04/01 05:16:59;;;;;;;13.35;8.00;;;;;;;;;;5009573;28;20387;-59
2024/04/01 05:19:25;;;;;;;13.23;7.93;;;;;;;;;;5009519;28;20507;-56
2024/04/01 05:21:51;;;;;;;13.40;8.20;;;;;;;;;;5024861;28;20030;-56
2024/04/01 05:24:17;;;;;;;13.48;8.30;;;;;;;;;;5009343;28;20115;-55
2024/04/01 05:26:44;;;;;;;13.38;8.27;;;;;;;;;;5009208;28;20510;-57
2024/04/01 05:29:10;;;;;;;13.35;8.05;;;;;;;;;;5009221;28;20103;-58
2024/04/01 05:31:36;;;;;;;13.35;8.00;;;;;;;;;;5024859;28;20416;-58
2024/04/01 05:34:03;;;;;;;13.23;7.82;;;;;;;;;;5009283;28;20030;-57
2024/04/01 05:36:30;;;;;;;13.38;8.25;;;;;;;;;;5009306;28;20025;-57
2024/04/01 05:38:56;;;;;;;13.45;8.32;;;;;;;;;;5009281;28;20454;-57
2024/04/01 05:41:22;;;;;;;13.52;8.48;;;;;;;;;;5009417;28;20021;-57
2024/04/01 05:43:48;;;;;;;13.55;8.60;;;;;;;;;;5009140;28;20538;-58
2024/04/01 05:46:15;;;;;;;13.60;8.82;;;;;;;;;;5024514;28;20033;-58
2024/04/01 05:48:42;;;;;;;13.75;9.27;;;;;;;;;;5009144;28;20128;-54
2024/04/01 05:51:08;;;;;;;14.18;10.45;;;;;;;;;;5009499;28;20046;-56
2024/04/01 05:53:34;;;;;;;14.20;10.70;;;;;;;;;;5009248;28;20034;-57
2024/04/01 05:56:04;;;;;;;14.35;10.95;;;;;;;;;;5009546;28;20034;-56
2024/04/01 05:58:30;;;;;;;14.60;11.65;;;;;;;;;;5009406;28;20022;-57
2024/04/01 06:00:56;;;;;;;17.67;15.98;;;;;;;;;;5009278;28;20590;-59
2024/04/01 06:03:22;;;;;;;18.30;16.58;;;;;;;;;;5008940;28;20103;-57
2024/04/01 06:05:48;;;;;;;18.67;16.88;;;;;;;;;;5009170;28;20112;-56
2024/04/01 06:08:14;;;;;;;18.63;16.83;;;;;;;;;;5008943;28;20037;-58
2024/04/01 06:10:40;;;;;;;18.75;16.95;;;;;;;;;;5009240;28;20030;-58
2024/04/01 06:13:07;;;;;;;19.38;17.58;;;;;;;;;;5007711;28;20403;-53
2024/04/01 06:15:33;;;;;;;19.35;17.55;;;;;;;;;;5008996;28;20033;-55
2024/04/01 06:17:59;;;;;;;19.02;17.23;;;;;;;;;;5008904;28;20030;-57
2024/04/01 06:20:25;;;;;;;19.02;17.23;;;;;;;;;;5010205;28;20032;-58
2024/04/01 06:22:51;;;;;;;19.13;17.33;;;;;;;;;;5012604;28;20084;-57
2024/04/01 06:25:18;;;;;;;19.10;17.30;;;;;;;;;;5012674;28;20104;-60
2024/04/01 06:27:44;;;;;;;19.27;17.48;;;;;;;;;;5012824;28;20018;-56
2024/04/01 06:30:10;;;;;;;19.25;17.45;;;;;;;;;;5011293;28;20080;-56
2024/04/01 06:32:36;;;;;;;19.40;17.60;;;;;;;;;;5012682;28;20026;-58
2024/04/01 06:35:02;;;;;;;20.05;18.25;;;;;;;;;;5010091;28;20076;-57
2024/04/01 06:37:28;;;;;;;19.92;18.13;;;;;;;;;;5012728;28;20056;-53
2024/04/01 06:39:55;;;;;;;20.27;18.48;;;;;;;;;;5012606;28;20033;-54
2024/04/01 06:42:21;;;;;;;20.40;18.60;;;;;;;;;;5013311;28;20081;-57
2024/04/01 06:44:50;;;;;;;20.23;18.42;;;;;;;;;;5012680;28;20097;-57
2024/04/01 06:47:16;;;;;;;20.50;18.70;;;;;;;;;;5011843;28;20049;-57
2024/04/01 06:49:42;;;;;;;20.58;18.77;;;;;;;;;;5011225;28;20563;-56
2024/04/01 06:52:08;;;;;;;20.70;18.90;;;;;;;;;;5012457;28;20056;-59
2024/04/01 06:54:34;;;;;;;20.20;18.40;;;;;;;;;;5011173;28;20041;-52
2024/04/01 06:57:02;;;;;;;20.75;18.95;;;;;;;;;;5012586;28;20416;-58
2024/04/01 06:59:28;;;;;;;21.13;19.25;;;;;;;;;;5012472;28;20018;-59
2024/04/01 07:01:54;;;;;;;20.55;18.75;;;;;;;;;;5012458;28;20022;-57
2024/04/01 07:04:20;;;;;;;20.70;18.90;;;;;;;;;;5013403;28;20022;-56
2024/04/01 07:06:46;;;;;;;21.25;19.35;;;;;;;;;;5011171;28;20393;-57
2024/04/01 07:09:12;;;;;;;21.38;19.48;;;;;;;;;;5012327;28;20045;-57
2024/04/01 07:11:38;;;;;;;21.27;19.38;;;;;;;;;;5012564;28;20228;-56
2024/04/01 07:14:04;;;;;;;21.27;19.38;;;;;;;;;;5012239;28;20373;-58
2024/04/01 07:16:30;;;;;;;21.30;19.40;;;;;;;;;;5012807;28;20045;-56
2024/04/01 07:18:56;;;;;;;21.10;19.20;;;;;;;;;;5012212;28;20121;-55
2024/04/01 07:21:22;;;;;;;24.60;22.60;;;;;;;;;;5011929;28;20025;-57
2024/04/01 07:23:48;;;;;;;24.08;22.08;;;;;;;;;;5011966;28;20650;-56
2024/04/01 07:26:14;;;;;;;24.67;22.67;;;;;;;;;;5011933;28;20076;-57
2024/04/01 07:28:40;;;;;;;24.35;22.35;;;;;;;;;;5011768;28;20113;-54
2024/04/01 07:31:07;;;;;;;24.42;22.42;;;;;;;;;;5011762;28;20092;-56
2024/04/01 07:33:33;;;;;;;24.67;22.67;;;;;;;;;;5010680;28;20029;-58
2024/04/01 07:35:59;;;;;;;24.38;22.38;;;;;;;;;;5012290;28;20084;-58
2024/04/01 07:38:25;;;;;;;24.40;22.40;;;;;;;;;;5012377;28;20037;-58
2024/04/01 07:40:51;;;;;;;24.30;22.30;;;;;;;;;;5012463;28;20036;-57
2024/04/01 07:43:17;;;;;;;23.23;21.33;;;;;;;;;;5011908;28;20037;-59
2024/04/01 07:45:43;;;;;;;23.50;21.60;;;;;;;;;;5011877;28;20030;-58
2024/04/01 07:48:09;;;;;;;23.80;21.90;;;;;;;;;;5011316;28;20108;-59
2024/04/01 07:50:35;;;;;;;24.10;22.10;;;;;;;;;;5010185;28;20029;-57
2024/04/01 07:53:01;;;;;;;24.50;22.50;;;;;;;;;;5010034;28;20030;-57
2024/04/01 07:55:27;;;;;;;24.83;22.83;;;;;;;;;;5011255;28;20042;-56
2024/04/01 07:57:53;;;;;;;24.35;22.35;;;;;;;;;;5010671;28;20072;-58
2024/04/01 08:00:19;;;;;;;23.55;21.65;;;;;;;;;;5011432;28;20491;-56
2024/04/01 08:02:45;;;;;;;23.10;21.20;;;;;;;;;;5010912;28;20037;-54
2024/04/01 08:05:11;;;;;;;23.55;21.65;;;;;;;;;;5011268;28;20076;-53
2024/04/01 08:07:37;;;;;;;23.23;21.33;;;;;;;;;;5011045;28;20034;-54
2024/04/01 08:10:03;;;;;;;26.33;24.23;;;;;;;;;;5010869;28;20029;-57
2024/04/01 08:12:29;;;;;;;25.42;23.42;;;;;;;;;;5011004;28;20048;-54
2024/04/01 08:14:55;;;;;;;24.33;22.33;;;;;;;;;;5010864;28;20469;-53
2024/04/01 08:17:21;;;;;;;24.23;22.23;;;;;;;;;;5010970;28;20042;-54
2024/04/01 08:19:47;;;;;;;24.70;22.70;;;;;;;;;;5010888;28;20416;-55
2024/04/01 08:22:14;;;;;;;25.08;23.08;;;;;;;;;;5010915;28;20026;-55
2024/04/01 08:24:40;;;;;;;24.92;22.92;;;;;;;;;;5010718;28;20030;-59
2024/04/01 08:27:06;;;;;;;24.70;22.70;;;;;;;;;;5009864;28;20069;-55
2024/04/01 08:29:32;;;;;;;25.40;23.40;;;;;;;;;;5010659;28;20030;-55
2024/04/01 08:31:58;;;;;;;25.02;23.02;;;;;;;;;;5010342;28;20473;-57
2024/04/01 08:34:24;;;;;;;25.02;23.02;;;;;;;;;;5010954;28;20061;-54
2024/04/01 08:36:50;;;;;;;25.30;23.30;;;;;;;;;;5009000;28;20034;-50
2024/04/01 08:39:16;;;;;;;24.95;22.95;;;;;;;;;;5010494;28;20474;-55
2024/04/01 08:41:49;;;;;;;25.55;23.55;;;;;;;;;;5010964;28;20121;-54
2024/04/01 08:44:16;;;;;;;25.00;23.00;;;;;;;;;;5010687;28;20403;-55
2024/04/01 08:46:46;;;;;;;24.17;22.17;;;;;;;;;;5010498;28;20045;-55
2024/04/01 08:49:13;;;;;;;24.58;22.58;;;;;;;;;;5010430;28;20049;-54
2024/04/01 08:51:39;;;;;;;23.90;21.90;;;;;;;;;;5010397;28;20025;-50
2024/04/01 08:54:08;;;;;;;24.27;22.27;;;;;;;;;;5010471;28;20033;-55
2024/04/01 08:56:38;;;;;;;24.45;22.45;;;;;;;;;;5011123;28;20057;-53
2024/04/01 08:59:04;;;;;;;26.33;24.23;;;;;;;;;;5010519;28;20109;-55
2024/04/01 09:01:31;;;;;;;25.65;23.60;;;;;;;;;;5010346;28;20029;-57
2024/04/01 09:03:57;;;;;;;25.40;23.40;;;;;;;;;;5010632;28;20018;-56
2024/04/01 09:06:23;;;;;;;25.20;23.20;;;;;;;;;;5010583;28;20099;-54
2024/04/01 09:08:51;;;;;;;25.77;23.67;;;;;;;;;;5010287;28;20038;-56
2024/04/01 09:11:18;;;;;;;26.23;24.13;;;;;;;;;;5010287;28;20030;-55
2024/04/01 09:13:46;;;;;;;25.60;23.50;;;;;;;;;;5010249;28;20041;-55
2024/04/01 09:16:12;;;;;;;25.45;23.35;;;;;;;;;;5010423;28;20095;-57
2024/04/01 09:18:38;;;;;;;25.20;23.20;;;;;;;;;;5010088;28;20033;-52
2024/04/01 09:21:05;;;;;;;25.30;23.30;;;;;;;;;;5010233;28;20034;-53
2024/04/01 09:23:41;;;;;;;25.08;23.08;;;;;;;;;;5010296;28;20470;-57
2024/04/01 09:26:06;;;;;;;24.27;22.27;;;;;;;;;;5010418;28;20025;-57
2024/04/01 09:28:33;;;;;;;23.35;21.35;;;;;;;;;;5009643;28;20499;-57
2024/04/01 09:30:59;;;;;;;23.58;21.58;;;;;;;;;;5009527;28;20022;-56
2024/04/01 09:33:25;;;;;;;23.58;21.58;;;;;;;;;;5010208;28;20021;-54
2024/04/01 09:35:51;;;;;;;23.73;21.73;;;;;;;;;;5010966;28;20030;-54
2024/04/01 09:38:17;;;;;;;22.52;20.63;;;;;;;;;;5010756;28;20018;-57
2024/04/01 09:40:51;;;;;;;23.27;21.27;;;;;;;;;;5012865;28;20041;-51
2024/04/01 09:43:23;;;;;;;22.50;20.60;;;;;;;;;;5014303;28;20026;-58
2024/04/01 09:45:51;;;;;;;21.42;19.52;;;;;;;;;;5010226;28;20022;-58
2024/04/01 09:48:17;;;;;;;22.05;20.15;;;;;;;;;;5008547;28;20021;-53
2024/04/01 09:50:44;;;;;;;22.33;20.42;;;;;;;;;;5010055;28;20040;-57
2024/04/01 09:53:10;;;;;;;21.73;19.83;;;;;;;;;;5009547;28;20522;-55
2024/04/01 09:55:45;;;;;;;21.60;19.70;;;;;;;;;;5011246;28;20042;-53
2024/04/01 09:58:20;;;;;;;22.05;20.15;;;;;;;;;;5013962;28;20579;-56
2024/04/01 10:01:05;;;;;;;22.08;20.17;;;;;;;;;;5012586;28;20022;-58
2024/04/01 10:03:49;;;;;;;21.25;19.35;;;;;;;;;;5013639;28;20026;-55
2024/04/01 10:06:23;;;;;;;21.50;19.60;;;;;;;;;;5013659;28;20034;-55
2024/04/01 10:08:52;;;;;;;21.45;19.55;;;;;;;;;;5013388;28;20504;-54
2024/04/01 10:11:41;;;;;;;21.33;19.42;;;;;;;;;;5013793;28;20393;-57
2024/04/01 10:14:23;;;;;;;21.35;19.45;;;;;;;;;;5011861;28;20037;-54
2024/04/01 10:17:01;;;;;;;21.45;19.55;;;;;;;;;;5011925;28;20061;-55
2024/04/01 10:19:45;;;;;;;21.17;19.27;;;;;;;;;;5013370;28;20093;-55
2024/04/01 10:22:14;;;;;;;21.85;19.95;;;;;;;;;;5012948;28;20035;-59
2024/04/01 10:25:10;;;;;;;22.45;20.55;;;;;;;;;;5012897;28;20417;-55
2024/04/01 10:28:01;;;;;;;23.38;21.38;;;;;;;;;;4999722;28;20034;-52
2024/04/01 10:30:30;;;;;;;23.52;21.52;;;;;;;;;;5014045;28;20026;-54
2024/04/01 10:33:22;;;;;;;23.73;21.73;;;;;;;;;;5011420;28;20018;-57
2024/04/01 10:36:04;;;;;;;24.23;22.23;;;;;;;;;;5011608;28;20114;-54
2024/04/01 10:38:48;;;;;;;24.77;22.77;;;;;;;;;;5011639;28;20128;-55
2024/04/01 10:41:17;;;;;;;25.10;23.10;;;;;;;;;;5011571;28;20017;-56
2024/04/01 10:44:07;;;;;;;23.73;21.73;;;;;;;;;;5011640;28;20101;-53
2024/04/01 10:46:51;;;;;;;22.88;20.98;;;;;;;;;;5011491;28;20136;-53
2024/04/01 10:49:28;;;;;;;21.38;19.48;;;;;;;;;;5012776;28;20653;-54
2024/04/01 10:51:56;;;;;;;21.02;19.13;;;;;;;;;;5012785;28;20550;-54
2024/04/01 10:54:27;;;;;;;21.48;19.58;;;;;;;;;;5012629;28;20116;-53
2024/04/01 10:57:08;;;;;;;22.00;20.10;;;;;;;;;;5012772;28;20022;-57
2024/04/01 10:59:43;;;;;;;21.98;20.08;;;;;;;;;;5012855;28;20485;-52
2024/04/01 11:02:24;;;;;;;23.52;21.52;;;;;;;;;;5012575;28;20030;-54
2024/04/01 11:05:03;;;;;;;22.85;20.85;;;;;;;;;;5012441;28;20030;-57
2024/04/01 11:07:32;;;;;;;22.13;20.23;;;;;;;;;;5012386;28;20022;-52
2024/04/01 11:10:08;;;;;;;20.73;18.83;;;;;;;;;;5012364;28;20041;-58
2024/04/01 11:12:53;;;;;;;21.75;19.85;;;;;;;;;;5012347;28;20532;-57
2024/04/01 11:15:19;;;;;;;21.77;19.88;;;;;;;;;;5012118;28;20053;-54
2024/04/01 11:17:46;;;;;;;21.85;19.95;;;;;;;;;;5011631;28;20029;-51
2024/04/01 11:20:21;;;;;;;20.52;18.73;;;;;;;;;;5011615;28;20041;-56
2024/04/01 11:22:59;;;;;;;21.23;19.33;;;;;;;;;;5012015;28;20041;-56
2024/04/01 11:25:44;;;;;;;21.13;19.23;;;;;;;;;;5011665;28;20064;-50
2024/04/01 11:28:13;;;;;;;21.83;19.92;;;;;;;;;;5010373;28;20035;-54
2024/04/01 11:30:39;;;;;;;21.83;19.92;;;;;;;;;;5010347;28;20026;-55
2024/04/01 11:33:09;;;;;;;21.45;19.55;;;;;;;;;;5010027;28;20038;-57
2024/04/01 11:35:48;;;;;;;21.45;19.55;;;;;;;;;;5010194;28;20026;-52
2024/04/01 11:38:16;;;;;;;21.85;19.95;;;;;;;;;;5010166;28;20088;-53
2024/04/01 11:40:42;;;;;;;22.17;20.27;;;;;;;;;;5008764;28;20048;-56
2024/04/01 11:43:10;;;;;;;22.35;20.45;;;;;;;;;;5011147;28;20030;-54
2024/04/01 11:45:38;;;;;;;22.43;20.53;;;;;;;;;;5011531;28;20030;-51
2024/04/01 11:48:04;;;;;;;22.47;20.57;;;;;;;;;;5009723;28;20136;-53
2024/04/01 11:50:31;;;;;;;22.02;20.13;;;;;;;;;;5011597;28;20105;-54
2024/04/01 11:52:57;;;;;;;22.38;20.48;;;;;;;;;;5010026;28;20026;-57
2024/04/01 11:55:24;;;;;;;24.90;22.90;;;;;;;;;;5011161;28;20439;-55
2024/04/01 11:57:50;;;;;;;31.83;29.48;;;;;;;;;;5011478;28;20026;-55
2024/04/01 12:00:16;;;;;;;32.15;29.75;;;;;;;;;;5009988;28;20026;-56
2024/04/01 12:02:52;;;;;;;31.95;29.55;;;;;;;;;;5010888;28;20022;-55
2024/04/01 12:05:18;;;;;;;32.33;29.92;;;;;;;;;;5011358;28;20022;-54
2024/04/01 12:07:45;;;;;;;31.27;28.88;;;;;;;;;;5011228;28;20103;-54
2024/04/01 12:10:14;;;;;;;30.02;27.73;;;;;;;;;;5011144;28;20026;-56
2024/04/01 12:12:40;;;;;;;;;;;;;;;;;;5011360;28;20080;-50
2024/04/01 12:15:07;;;;;;;30.52;28.23;;;;;;;;;;5008694;28;19905;-52
2024/04/01 12:17:36;;;;;;;29.05;26.85;;;;;;;;;;5009119;28;20021;-57
2024/04/01 12:20:05;;;;;;;28.00;25.80;;;;;;;;;;5009199;28;20024;-56
2024/04/01 12:22:31;;;;;;;27.20;25.10;;;;;;;;;;5009506;28;20050;-54
2024/04/01 12:24:57;;;;;;;26.17;24.08;;;;;;;;;;5009151;28;20054;-56
2024/04/01 12:27:23;;;;;;;25.08;23.08;;;;;;;;;;5009392;28;20072;-56
2024/04/01 12:29:52;;;;;;;23.73;21.73;;;;;;;;;;5009613;28;20026;-54
2024/04/01 12:32:20;;;;;;;24.08;22.08;;;;;;;;;;5010680;28;20113;-54
2024/04/01 12:34:46;;;;;;;23.70;21.70;;;;;;;;;;5010617;28;20061;-53
2024/04/01 12:37:13;;;;;;;23.05;21.13;;;;;;;;;;5009923;28;20465;-56
2024/04/01 12:39:48;;;;;;;22.75;20.85;;;;;;;;;;5010444;28;20105;-54
2024/04/01 12:42:21;;;;;;;22.48;20.58;;;;;;;;;;5010623;28;20030;-54
2024/04/01 12:44:49;;;;;;;22.13;20.23;;;;;;;;;;5022675;28;20053;-53
2024/04/01 12:47:17;;;;;;;22.35;20.45;;;;;;;;;;5029048;28;20068;-54
2024/04/01 12:49:44;;;;;;;22.75;20.85;;;;;;;;;;5029978;28;20472;-55
2024/04/01 12:52:11;;;;;;;24.17;22.17;;;;;;;;;;5030277;28;20038;-54
2024/04/01 12:54:43;;;;;;;25.00;22.90;;;;;;;;;;5029720;28;20068;-53
2024/04/01 12:57:18;;;;;;;24.80;22.80;;;;;;;;;;5029891;28;20026;-54
2024/04/01 12:59:56;;;;;;;25.38;23.30;;;;;;;;;;5029970;28;20037;-51
2024/04/01 13:02:40;;;;;;;24.23;22.23;;;;;;;;;;5029908;28;20112;-53
2024/04/01 13:05:24;;;;;;;22.95;21.05;;;;;;;;;;5029722;28;20427;-53
2024/04/01 13:07:59;;;;;;;21.42;19.52;;;;;;;;;;5028567;28;20033;-53
2024/04/01 13:10:30;;;;;;;21.05;19.15;;;;;;;;;;5033088;28;20069;-55
2024/04/01 13:13:15;;;;;;;21.20;19.30;;;;;;;;;;5031276;28;20029;-52
2024/04/01 13:15:47;;;;;;;21.63;19.73;;;;;;;;;;5030555;28;20127;-53
2024/04/01 13:18:16;;;;;;;22.08;20.17;;;;;;;;;;5029072;28;21561;-56
2024/04/01 13:20:42;;;;;;;22.90;21.00;;;;;;;;;;5028547;28;20033;-56
2024/04/01 13:23:24;;;;;;;21.83;19.92;;;;;;;;;;4678599;28;10000043;-57
2024/04/01 13:25:56;;;;;;;22.75;20.85;;;;;;;;;;5007231;28;20108;-57
2024/04/01 13:28:26;;;;;;;22.25;20.35;;;;;;;;;;5005680;28;20623;-55
2024/04/01 13:31:01;;;;;;;22.15;20.25;;;;;;;;;;5005333;28;20028;-56
2024/04/01 13:33:45;;;;;;;22.95;21.05;;;;;;;;;;5006375;28;20034;-51
2024/04/01 13:36:26;;;;;;;21.95;20.05;;;;;;;;;;5004905;28;20030;-56
2024/04/01 13:38:55;;;;;;;22.17;20.27;;;;;;;;;;5006434;28;20505;-57
2024/04/01 13:41:21;;;;;;;22.63;20.73;;;;;;;;;;5007002;28;20806;-54
2024/04/01 13:44:10;;;;;;;22.15;20.25;;;;;;;;;;5006760;28;20022;-56
2024/04/01 13:46:55;;;;;;;21.65;19.75;;;;;;;;;;5001550;28;20048;-55
2024/04/01 13:49:40;;;;;;;21.33;19.42;;;;;;;;;;5007066;28;20026;-56
2024/04/01 13:52:06;;;;;;;21.73;19.83;;;;;;;;;;5005471;28;20030;-53
2024/04/01 13:54:31;;;;;;;21.75;19.85;;;;;;;;;;5006498;28;20048;-51
2024/04/01 13:57:21;;;;;;;21.52;19.63;;;;;;;;;;5006754;28;20073;-57
2024/04/01 13:59:50;;;;;;;21.15;19.25;;;;;;;;;;4989325;28;20626;-54
2024/04/01 14:02:33;;;;;;;17.95;16.25;;;;;;;;;;4988983;28;20038;-53
2024/04/01 14:05:04;;;;;;;17.75;16.05;;;;;;;;;;4989585;28;20045;-54
2024/04/01 14:07:49;;;;;;;18.13;16.42;;;;;;;;;;4989699;28;20050;-57
2024/04/01 14:10:25;;;;;;;17.42;15.73;;;;;;;;;;4989100;28;20038;-56
2024/04/01 14:13:03;;;;;;;17.45;15.75;;;;;;;;;;4989059;28;20036;-54
2024/04/01 14:15:29;;;;;;;;;;;;;;;;;;4989699;28;20109;-56
2024/04/01 14:17:58;;;;;;;17.20;15.50;;;;;;;;;;4989518;28;19993;-54
2024/04/01 14:20:30;;;;;;;16.75;15.05;;;;;;;;;;4988250;28;20026;-56
2024/04/01 14:22:56;;;;;;;16.25;14.55;;;;;;;;;;4986936;28;20460;-55
2024/04/01 14:25:22;;;;;;;16.15;14.45;;;;;;;;;;4993754;28;20026;-57
2024/04/01 14:27:48;;;;;;;16.00;14.30;;;;;;;;;;5009361;28;20084;-55
2024/04/01 14:30:14;;;;;;;15.18;13.27;;;;;;;;;;5008305;28;20034;-55
2024/04/01 14:32:40;;;;;;;15.00;12.98;;;;;;;;;;5009547;28;20050;-54